PrentiSS Brown — WDE6848 — position and weather

sailwx.info

Track history (hours):
 
Tides and Currents Weather Stations Pressure Air Temp Water Temp Dewpoint Dewpoint Depression Visibility Wind Speed Wind Dir Waves Ship Positions

PrentiSS Brown

Owner: Port City Marine Services Inc, Muskegon, MI. More information available from US FCC via Universal Licensing System and Coast Guard Vessel Documentation Center.

Last reported at 2018-May-21 07:00 UTC. Time now 2018-May-21 07:21 UTC.
Position N 45°35' W 085°20'.

; draft 7 m.

Type: Other ship. MMSI: 366922280.

Date/timePositionNaut miles runAvg speedWind from/ knotsBaromVisibWave heightAir tempDewpointWater temp
2018-May-21 07:00N 45°35' W 085°20'5 9.3
2018-May-21 06:30N 45°32' W 085°24'5 9.4
2018-May-21 06:00N 45°28' W 085°28'5 9.4
2018-May-21 05:30N 45°24' W 085°32'5 9.4
2018-May-21 05:00N 45°20' W 085°36'5 9.4
2018-May-21 04:30N 45°16' W 085°40'5 9.4
2018-May-21 04:00N 45°13' W 085°44'14 9.3
2018-May-21 02:28N 45°01' W 085°56'4 9.1
2018-May-21 02:00N 44°59' W 086°01'5 9.4
2018-May-21 01:29N 44°57' W 086°07'  
2018-May-18 06:11N 45°13' W 085°39'1 8.6
2018-May-18 06:00N 45°14' W 085°37'4 8.6
2018-May-18 05:30N 45°16' W 085°31'4 8.5
2018-May-18 05:00N 45°18' W 085°26'4 8.5
2018-May-18 04:30N 45°20' W 085°21'2 4.9
2018-May-18 04:00N 45°19' W 085°17'0 0.8
2018-May-18 03:30N 45°19' W 085°18'0 0.0
2018-May-18 03:00N 45°19' W 085°18'0 0.0
2018-May-18 02:30N 45°19' W 085°18'0 0.0
2018-May-18 02:00N 45°19' W 085°18'0 0.0
2018-May-18 01:30N 45°19' W 085°18'0 0.0
2018-May-18 01:00N 45°19' W 085°18'0 0.0
2018-May-18 00:30N 45°19' W 085°18'0 0.0
2018-May-18 00:00N 45°19' W 085°18'0 0.0
2018-May-17 23:30N 45°19' W 085°18'0 0.0
2018-May-17 23:00N 45°19' W 085°18'0 0.0
2018-May-17 22:30N 45°19' W 085°18'0 0.0
2018-May-17 22:00N 45°19' W 085°18'0 0.0
2018-May-17 21:30N 45°19' W 085°18'0 0.0
2018-May-17 21:00N 45°19' W 085°18'0 0.0
2018-May-17 20:30N 45°19' W 085°18'0 0.0
2018-May-17 20:00N 45°19' W 085°18'0 0.6
2018-May-17 19:30N 45°19' W 085°17'3 5.8
2018-May-17 19:00N 45°19' W 085°21'5 9.2
2018-May-17 18:30N 45°17' W 085°27'5 9.5
2018-May-17 18:00N 45°15' W 085°33'5 8.9
2018-May-17 17:27N 45°13' W 085°39'1 0.0
2018-May-15 16:43N 45°13' W 085°39'2 8.9
2018-May-15 16:30N 45°14' W 085°36'4 8.9
2018-May-15 16:00N 45°16' W 085°31'4 8.8
2018-May-15 15:30N 45°18' W 085°25'4 8.8
2018-May-15 15:00N 45°20' W 085°20'2 3.7
2018-May-15 14:30N 45°19' W 085°17'0 0.5
2018-May-15 14:00N 45°19' W 085°18'0 0.0
2018-May-15 13:30N 45°19' W 085°18'0 0.0
2018-May-15 13:00N 45°19' W 085°18'0 0.0
2018-May-15 12:30N 45°19' W 085°18'0 0.0
2018-May-15 12:00N 45°19' W 085°18'0 0.0
2018-May-15 11:30N 45°19' W 085°18'0 0.0
2018-May-15 11:00N 45°19' W 085°18'0 0.0
2018-May-15 10:30N 45°19' W 085°18'0 0.0
2018-May-15 10:00N 45°19' W 085°18'0 0.0
2018-May-15 09:30N 45°19' W 085°18'0 0.0
2018-May-15 09:00N 45°19' W 085°18'0 1.0
2018-May-15 08:30N 45°19' W 085°17'3 6.1
2018-May-15 08:00N 45°19' W 085°21'5 9.5
2018-May-15 07:30N 45°17' W 085°27'5 9.4
2018-May-15 07:00N 45°15' W 085°33'5 9.4
2018-May-15 06:30N 45°13' W 085°39'  
2018-May-12 07:57N 45°13' W 085°38'4 8.5
2018-May-12 07:31N 45°15' W 085°34'4 8.4
2018-May-12 07:00N 45°17' W 085°28'4 8.6
2018-May-12 06:30N 45°19' W 085°23'4 7.7
2018-May-12 06:00N 45°20' W 085°18'1 1.9
2018-May-12 05:30N 45°19' W 085°18'0 0.0
2018-May-12 05:00N 45°19' W 085°18'0 0.0
2018-May-12 04:30N 45°19' W 085°18'0 0.0
2018-May-12 04:00N 45°19' W 085°18'0 0.0
2018-May-12 03:30N 45°19' W 085°18'0 0.0
2018-May-12 02:59N 45°19' W 085°18'0 0.1
2018-May-12 02:31N 45°19' W 085°18'0 0.0
2018-May-12 02:01N 45°19' W 085°18'0 0.0
2018-May-12 01:30N 45°19' W 085°18'0 0.0
2018-May-12 01:00N 45°19' W 085°18'0 0.0
2018-May-12 00:31N 45°19' W 085°18'0 0.0
2018-May-12 00:00N 45°19' W 085°18'0 0.0
2018-May-11 23:30N 45°19' W 085°18'1 2.9
2018-May-11 23:01N 45°20' W 085°19'5 9.2
2018-May-11 22:31N 45°18' W 085°25'5 9.3
2018-May-11 22:00N 45°16' W 085°31'5 9.2
2018-May-11 21:30N 45°14' W 085°37'  
Track history (hours):
 
Tides and Currents Weather Stations Pressure Air Temp Water Temp Dewpoint Dewpoint Depression Visibility Wind Speed Wind Dir Waves Ship Positions

PrentiSS Brown

Owner: Port City Marine Services Inc, Muskegon, MI. More information available from US FCC via Universal Licensing System and Coast Guard Vessel Documentation Center.

Last reported at 2018-May-21 07:00 UTC. Time now 2018-May-21 07:21 UTC.
Position N 45°35' W 085°20'.

; draft 7 m.

Type: Other ship. MMSI: 366922280.

Date/timePositionNaut miles runAvg speedWind from/ knotsBaromVisibWave heightAir tempDewpointWater temp
2018-May-21 07:00N 45°35' W 085°20'5 9.3
2018-May-21 06:30N 45°32' W 085°24'5 9.4
2018-May-21 06:00N 45°28' W 085°28'5 9.4
2018-May-21 05:30N 45°24' W 085°32'5 9.4
2018-May-21 05:00N 45°20' W 085°36'5 9.4
2018-May-21 04:30N 45°16' W 085°40'5 9.4
2018-May-21 04:00N 45°13' W 085°44'14 9.3
2018-May-21 02:28N 45°01' W 085°56'4 9.1
2018-May-21 02:00N 44°59' W 086°01'5 9.4
2018-May-21 01:29N 44°57' W 086°07'  
2018-May-18 06:11N 45°13' W 085°39'1 8.6
2018-May-18 06:00N 45°14' W 085°37'4 8.6
2018-May-18 05:30N 45°16' W 085°31'4 8.5
2018-May-18 05:00N 45°18' W 085°26'4 8.5
2018-May-18 04:30N 45°20' W 085°21'2 4.9
2018-May-18 04:00N 45°19' W 085°17'0 0.8
2018-May-18 03:30N 45°19' W 085°18'0 0.0
2018-May-18 03:00N 45°19' W 085°18'0 0.0
2018-May-18 02:30N 45°19' W 085°18'0 0.0
2018-May-18 02:00N 45°19' W 085°18'0 0.0
2018-May-18 01:30N 45°19' W 085°18'0 0.0
2018-May-18 01:00N 45°19' W 085°18'0 0.0
2018-May-18 00:30N 45°19' W 085°18'0 0.0
2018-May-18 00:00N 45°19' W 085°18'0 0.0
2018-May-17 23:30N 45°19' W 085°18'0 0.0
2018-May-17 23:00N 45°19' W 085°18'0 0.0
2018-May-17 22:30N 45°19' W 085°18'0 0.0
2018-May-17 22:00N 45°19' W 085°18'0 0.0
2018-May-17 21:30N 45°19' W 085°18'0 0.0
2018-May-17 21:00N 45°19' W 085°18'0 0.0
2018-May-17 20:30N 45°19' W 085°18'0 0.0
2018-May-17 20:00N 45°19' W 085°18'0 0.6
2018-May-17 19:30N 45°19' W 085°17'3 5.8
2018-May-17 19:00N 45°19' W 085°21'5 9.2
2018-May-17 18:30N 45°17' W 085°27'5 9.5
2018-May-17 18:00N 45°15' W 085°33'5 8.9
2018-May-17 17:27N 45°13' W 085°39'1 0.0
2018-May-15 16:43N 45°13' W 085°39'2 8.9
2018-May-15 16:30N 45°14' W 085°36'4 8.9
2018-May-15 16:00N 45°16' W 085°31'4 8.8
2018-May-15 15:30N 45°18' W 085°25'4 8.8
2018-May-15 15:00N 45°20' W 085°20'2 3.7
2018-May-15 14:30N 45°19' W 085°17'0 0.5
2018-May-15 14:00N 45°19' W 085°18'0 0.0
2018-May-15 13:30N 45°19' W 085°18'0 0.0
2018-May-15 13:00N 45°19' W 085°18'0 0.0
2018-May-15 12:30N 45°19' W 085°18'0 0.0
2018-May-15 12:00N 45°19' W 085°18'0 0.0
2018-May-15 11:30N 45°19' W 085°18'0 0.0
2018-May-15 11:00N 45°19' W 085°18'0 0.0
2018-May-15 10:30N 45°19' W 085°18'0 0.0
2018-May-15 10:00N 45°19' W 085°18'0 0.0
2018-May-15 09:30N 45°19' W 085°18'0 0.0
2018-May-15 09:00N 45°19' W 085°18'0 1.0
2018-May-15 08:30N 45°19' W 085°17'3 6.1
2018-May-15 08:00N 45°19' W 085°21'5 9.5
2018-May-15 07:30N 45°17' W 085°27'5 9.4
2018-May-15 07:00N 45°15' W 085°33'5 9.4
2018-May-15 06:30N 45°13' W 085°39'  
2018-May-12 07:57N 45°13' W 085°38'4 8.5
2018-May-12 07:31N 45°15' W 085°34'4 8.4
2018-May-12 07:00N 45°17' W 085°28'4 8.6
2018-May-12 06:30N 45°19' W 085°23'4 7.7
2018-May-12 06:00N 45°20' W 085°18'1 1.9
2018-May-12 05:30N 45°19' W 085°18'0 0.0
2018-May-12 05:00N 45°19' W 085°18'0 0.0
2018-May-12 04:30N 45°19' W 085°18'0 0.0
2018-May-12 04:00N 45°19' W 085°18'0 0.0
2018-May-12 03:30N 45°19' W 085°18'0 0.0
2018-May-12 02:59N 45°19' W 085°18'0 0.1
2018-May-12 02:31N 45°19' W 085°18'0 0.0
2018-May-12 02:01N 45°19' W 085°18'0 0.0
2018-May-12 01:30N 45°19' W 085°18'0 0.0
2018-May-12 01:00N 45°19' W 085°18'0 0.0
2018-May-12 00:31N 45°19' W 085°18'0 0.0
2018-May-12 00:00N 45°19' W 085°18'0 0.0
2018-May-11 23:30N 45°19' W 085°18'1 2.9
2018-May-11 23:01N 45°20' W 085°19'5 9.2
2018-May-11 22:31N 45°18' W 085°25'5 9.3
2018-May-11 22:00N 45°16' W 085°31'5 9.2
2018-May-11 21:30N 45°14' W 085°37'  

Dump ship's entire track history